Terminal Aerodrome Forecast
Issued by NWS

Home | Current Version | Previous Version | Text Only | Print | Product List | Glossary On
Versions: 1 2 3 4 5 6 7 8 9 10 11 12 13 14 15 16 17 18 19 20 21 22 23 24 25 26 27 28 29 30 31 32 33
366
FTUS44 KMOB 290531
TAFBFM
TAF
KBFM 290531Z 2906/3006 08003KT P6SM BKN060
     FM290900 10002KT 4SM BR BKN010
     FM291400 13006KT P6SM BKN025
     FM291700 15010KT P6SM SCT035=

USA.gov is the U.S. government's official web portal to all federal, state and local government web resources and services.